Aérodrome :
LOGIN :

S'inscrire | Disclaimer

   EN    FR    IT 

 










Légende :    VFR   VFR Marginal   IFR   IFR Intensif   IFR Très Intensif
Visi : 
Plafond : 
>= 8 km
>= 3000ft
5 à 8 km
1000 à 3000 ft
1500m à 5 km
500 à 1000 ft
800 à 1500m
200 à 500 ft
< 800m
< 200 ft
Symboles :   Orages  Brouillard  Fortes neiges  Fortes précipitations  Vent > 20 kt
SIGMETs :   Divers  Orages  Givrage  Turbulence  Onde Orograph.  Cendres Volcan.







- Altitude de l'aérodrome : 290 ft
- Code IATA : LAI
- Voir les cartes d'approche


LFRO - Lannion

DERNIER METAR :
  • 122230Z AUTO 20010KT CAVOK 10/08 Q1016

METARs EXPIRÉS :
  • 122200Z AUTO 20010KT CAVOK 10/08 Q1016
  • 122130Z AUTO 20008KT CAVOK 09/08 Q1016
  • 122100Z AUTO 21009KT CAVOK 10/08 Q1015
  • 122030Z AUTO 20008KT CAVOK 10/08 Q1015 TEMPO SHRA BKN016TCU
  • 122000Z AUTO 20008KT CAVOK 10/08 Q1015 TEMPO SHRA BKN016TCU

TAF TAF LFRO
Valide du 12 à 18h jusqu'au 13 à 18h UTC


121700Z 1218/1318 20010KT 9999 SCT020 SCT030
TEMPO 1218/1306 SHRA BKN016TCU
PROB30
TEMPO 1218/1220 4000 TSRA SCT013CB BKN015
Pas de NOTAMs connus pour ce terrain.



MET'MAP, la Météo Aéronautique d'un coup d'oeil ! - Copyright ORBIFLY Décembre 2007 - Disclaimer

ORBIFLY MET'MAP TEAM :

Programmation & Développement : Alexandra Zaïnal
Conception & Développement : Baudouin d'Aumeries
Co-Programmation & Développement : Marc-Olivier Méhu
Soutien technique & logistique : Manuel Goepfert

Contact : metmap@orbifly.com




SOURCES & CREDITS :

   NOAA